Time,TemperatureF,DewpointF,PressureIn,WindDirection,WindDirectionDegrees,WindSpeedMPH,WindSpeedGustMPH,Humidity,HourlyPrecipIn,Conditions,Clouds,dailyrainin,SoftwareType,DateUTC
2013-09-07 00:14:00,71.4,71.0,30.06,South,191,0.0,0.0,97,0.00,,,0.00,weatherlink.com 1.10,2013-09-07 04:14:00,
2013-09-07 00:29:00,71.1,70.0,30.06,South,191,0.0,0.0,97,0.00,,,0.00,weatherlink.com 1.10,2013-09-07 04:29:00,
2013-09-07 00:44:00,70.9,70.0,30.06,South,191,0.0,0.0,98,0.00,,,0.00,weatherlink.com 1.10,2013-09-07 04:44:00,
2013-09-07 00:59:00,71.0,70.0,30.06,SSW,205,0.0,1.0,98,0.00,,,0.00,weatherlink.com 1.10,2013-09-07 04:59:00,
2013-09-07 01:14:00,71.3,71.0,30.06,SE,129,1.0,1.0,98,0.00,,,0.00,weatherlink.com 1.10,2013-09-07 05:14:00,
2013-09-07 01:29:00,71.4,71.0,30.06,SSW,193,0.0,1.0,97,0.00,,,0.00,weatherlink.com 1.10,2013-09-07 05:29:00,
2013-09-07 01:44:00,71.2,70.0,30.06,SSW,207,0.0,1.0,97,0.00,,,0.00,weatherlink.com 1.10,2013-09-07 05:44:00,
2013-09-07 01:59:00,71.1,70.0,30.06,SSE,148,0.0,0.0,97,0.00,,,0.00,weatherlink.com 1.10,2013-09-07 05:59:00,
2013-09-07 02:14:00,71.0,70.0,30.06,SSE,148,0.0,0.0,97,0.00,,,0.00,weatherlink.com 1.10,2013-09-07 06:14:00,
2013-09-07 02:29:00,71.1,70.0,30.06,South,190,0.0,0.0,97,0.00,,,0.00,weatherlink.com 1.10,2013-09-07 06:29:00,
2013-09-07 02:44:00,70.9,70.0,30.06,South,186,0.0,0.0,97,0.00,,,0.00,weatherlink.com 1.10,2013-09-07 06:44:00,
2013-09-07 02:59:00,70.8,70.0,30.06,WSW,243,0.0,0.0,97,0.00,,,0.00,weatherlink.com 1.10,2013-09-07 06:59:00,
2013-09-07 03:14:00,70.7,70.0,30.05,NNW,343,0.0,0.0,97,0.00,,,0.00,weatherlink.com 1.10,2013-09-07 07:14:00,
2013-09-07 03:29:00,70.6,70.0,30.05,ESE,108,0.0,1.0,97,0.00,,,0.00,weatherlink.com 1.10,2013-09-07 07:29:00,
2013-09-07 03:44:00,70.3,69.0,30.05,SW,228,0.0,0.0,97,0.00,,,0.00,weatherlink.com 1.10,2013-09-07 07:44:00,
2013-09-07 03:59:00,70.1,69.0,30.05,SW,228,0.0,1.0,97,0.00,,,0.00,weatherlink.com 1.10,2013-09-07 07:59:00,
2013-09-07 04:14:00,70.2,70.0,30.05,SW,228,0.0,0.0,98,0.00,,,0.00,weatherlink.com 1.10,2013-09-07 08:14:00,
2013-09-07 04:29:00,70.2,70.0,30.06,SW,228,0.0,0.0,98,0.00,,,0.00,weatherlink.com 1.10,2013-09-07 08:29:00,
2013-09-07 04:44:00,70.1,70.0,30.06,SW,228,0.0,0.0,98,0.00,,,0.00,weatherlink.com 1.10,2013-09-07 08:44:00,
2013-09-07 04:59:00,70.2,70.0,30.06,SSW,210,0.0,0.0,98,0.00,,,0.00,weatherlink.com 1.10,2013-09-07 08:59:00,
2013-09-07 05:14:00,69.9,69.0,30.06,SW,214,0.0,0.0,98,0.00,,,0.00,weatherlink.com 1.10,2013-09-07 09:14:00,
2013-09-07 05:29:00,69.5,69.0,30.06,SW,214,0.0,0.0,98,0.00,,,0.00,weatherlink.com 1.10,2013-09-07 09:29:00,
2013-09-07 05:44:00,69.2,69.0,30.06,SW,214,0.0,0.0,98,0.00,,,0.00,weatherlink.com 1.10,2013-09-07 09:44:00,
2013-09-07 05:59:00,69.0,69.0,30.06,SW,217,0.0,0.0,98,0.00,,,0.00,weatherlink.com 1.10,2013-09-07 09:59:00,
2013-09-07 06:14:00,68.9,68.0,30.06,East,84,0.0,0.0,98,0.00,,,0.00,weatherlink.com 1.10,2013-09-07 10:14:00,
2013-09-07 06:30:00,68.6,68.0,30.07,WSW,246,0.0,1.0,98,0.00,,,0.00,weatherlink.com 1.10,2013-09-07 10:30:00,
2013-09-07 06:45:00,68.5,68.0,30.07,SW,229,0.0,1.0,98,0.00,,,0.00,weatherlink.com 1.10,2013-09-07 10:45:00,
2013-09-07 07:00:00,68.3,68.0,30.07,SW,231,1.0,1.0,98,0.00,,,0.00,weatherlink.com 1.10,2013-09-07 11:00:00,
2013-09-07 07:15:00,68.1,68.0,30.07,SW,222,0.0,1.0,99,0.00,,,0.00,weatherlink.com 1.10,2013-09-07 11:15:00,
2013-09-07 07:30:00,68.3,68.0,30.08,SSW,197,0.0,0.0,99,0.00,,,0.00,weatherlink.com 1.10,2013-09-07 11:30:00,
2013-09-07 07:45:00,68.6,68.0,30.08,West,276,0.0,1.0,98,0.00,,,0.00,weatherlink.com 1.10,2013-09-07 11:45:00,
2013-09-07 08:00:00,69.3,69.0,30.08,West,267,0.0,1.0,98,0.00,,,0.00,weatherlink.com 1.10,2013-09-07 12:00:00,
2013-09-07 08:15:00,69.9,69.0,30.08,North,359,0.0,3.0,98,0.00,,,0.00,weatherlink.com 1.10,2013-09-07 12:15:00,
2013-09-07 08:30:00,70.7,70.0,30.08,SW,226,0.0,2.0,97,0.00,,,0.00,weatherlink.com 1.10,2013-09-07 12:30:00,
2013-09-07 08:45:00,71.8,71.0,30.08,ESE,104,0.0,4.0,97,0.00,,,0.00,weatherlink.com 1.10,2013-09-07 12:45:00,
2013-09-07 09:00:00,73.3,71.0,30.08,East,98,1.0,1.0,93,0.00,,,0.00,weatherlink.com 1.10,2013-09-07 13:00:00,
2013-09-07 09:15:00,75.3,72.0,30.09,ENE,65,0.0,2.0,89,0.00,,,0.00,weatherlink.com 1.10,2013-09-07 13:15:00,
2013-09-07 09:30:00,76.6,72.0,30.09,NE,45,1.0,3.0,84,0.00,,,0.00,weatherlink.com 1.10,2013-09-07 13:30:00,
2013-09-07 09:45:00,77.9,72.0,30.09,NNE,29,1.0,2.0,82,0.00,,,0.00,weatherlink.com 1.10,2013-09-07 13:45:00,
2013-09-07 10:00:00,78.6,72.0,30.09,WNW,302,0.0,5.0,80,0.00,,,0.00,weatherlink.com 1.10,2013-09-07 14:00:00,
2013-09-07 10:15:00,79.6,73.0,30.09,ENE,69,1.0,4.0,79,0.00,,,0.00,weatherlink.com 1.10,2013-09-07 14:15:00,
2013-09-07 10:30:00,79.3,72.0,30.09,East,82,3.0,8.0,77,0.00,,,0.00,weatherlink.com 1.10,2013-09-07 14:30:00,
2013-09-07 10:45:00,79.3,72.0,30.10,NE,53,1.0,11.0,79,0.00,,,0.00,weatherlink.com 1.10,2013-09-07 14:45:00,
2013-09-07 11:00:00,79.2,72.0,30.10,WSW,257,2.0,8.0,79,0.00,,,0.00,weatherlink.com 1.10,2013-09-07 15:00:00,
2013-09-07 11:15:00,78.9,72.0,30.10,NE,37,4.0,12.0,79,0.00,,,0.00,weatherlink.com 1.10,2013-09-07 15:15:00,
2013-09-07 11:30:00,79.4,72.0,30.10,East,92,10.0,10.0,79,0.00,,,0.00,weatherlink.com 1.10,2013-09-07 15:30:00,
2013-09-07 11:45:00,80.0,73.0,30.09,East,91,9.0,10.0,79,0.00,,,0.00,weatherlink.com 1.10,2013-09-07 15:45:00,
2013-09-07 12:00:00,79.8,72.0,30.09,East,96,11.0,12.0,78,0.00,,,0.00,weatherlink.com 1.10,2013-09-07 16:00:00,
2013-09-07 12:15:00,79.7,72.0,30.09,East,92,9.0,12.0,78,0.00,,,0.00,weatherlink.com 1.10,2013-09-07 16:15:00,
2013-09-07 12:30:00,79.6,73.0,30.09,ESE,115,2.0,11.0,80,0.00,,,0.00,weatherlink.com 1.10,2013-09-07 16:30:00,
2013-09-07 12:45:00,80.1,72.0,30.08,East,97,3.0,14.0,75,0.00,,,0.00,weatherlink.com 1.10,2013-09-07 16:45:00,
2013-09-07 13:00:00,79.7,72.0,30.08,East,79,9.0,12.0,76,0.00,,,0.00,weatherlink.com 1.10,2013-09-07 17:00:00,
2013-09-07 13:15:00,79.7,71.0,30.08,ESE,104,6.0,14.0,75,0.00,,,0.00,weatherlink.com 1.10,2013-09-07 17:15:00,
2013-09-07 13:30:00,80.9,72.0,30.07,ESE,112,4.0,12.0,75,0.00,,,0.00,weatherlink.com 1.10,2013-09-07 17:30:00,
2013-09-07 13:45:00,80.1,71.0,30.07,East,86,6.0,12.0,73,0.00,,,0.00,weatherlink.com 1.10,2013-09-07 17:45:00,
2013-09-07 14:00:00,80.5,71.0,30.06,ESE,120,3.0,10.0,72,0.00,,,0.00,weatherlink.com 1.10,2013-09-07 18:00:00,
2013-09-07 14:15:00,81.0,72.0,30.06,NE,53,4.0,7.0,73,0.00,,,0.00,weatherlink.com 1.10,2013-09-07 18:15:00,
2013-09-07 14:30:00,80.9,71.0,30.05,ENE,65,2.0,11.0,71,0.00,,,0.00,weatherlink.com 1.10,2013-09-07 18:30:00,
2013-09-07 14:45:00,81.3,70.0,30.05,East,96,1.0,8.0,68,0.00,,,0.00,weatherlink.com 1.10,2013-09-07 18:45:00,
2013-09-07 15:00:00,80.6,70.0,30.04,East,91,2.0,9.0,70,0.00,,,0.00,weatherlink.com 1.10,2013-09-07 19:00:00,
2013-09-07 15:15:00,80.9,69.0,30.04,ENE,74,3.0,7.0,68,0.00,,,0.00,weatherlink.com 1.10,2013-09-07 19:15:00,
2013-09-07 15:31:00,81.0,69.0,30.03,SE,138,2.0,6.0,68,0.00,,,0.00,weatherlink.com 1.10,2013-09-07 19:31:00,
2013-09-07 15:46:00,80.6,69.0,30.03,ESE,112,4.0,10.0,68,0.00,,,0.00,weatherlink.com 1.10,2013-09-07 19:46:00,
2013-09-07 16:01:00,80.7,69.0,30.02,ESE,122,0.0,9.0,68,0.00,,,0.00,weatherlink.com 1.10,2013-09-07 20:01:00,
2013-09-07 16:16:00,80.4,69.0,30.02,ESE,105,1.0,8.0,68,0.00,,,0.00,weatherlink.com 1.10,2013-09-07 20:16:00,
2013-09-07 16:31:00,81.3,69.0,30.02,North,6,3.0,6.0,67,0.00,,,0.00,weatherlink.com 1.10,2013-09-07 20:31:00,
2013-09-07 16:46:00,80.3,68.0,30.02,ESE,102,3.0,8.0,67,0.00,,,0.00,weatherlink.com 1.10,2013-09-07 20:46:00,
2013-09-07 17:01:00,80.7,68.0,30.01,ENE,77,5.0,5.0,65,0.00,,,0.00,weatherlink.com 1.10,2013-09-07 21:01:00,
2013-09-07 17:16:00,79.8,68.0,30.02,East,80,1.0,5.0,68,0.00,,,0.00,weatherlink.com 1.10,2013-09-07 21:16:00,
2013-09-07 17:31:00,79.5,68.0,30.01,ESE,115,0.0,5.0,68,0.00,,,0.00,weatherlink.com 1.10,2013-09-07 21:31:00,
2013-09-07 17:46:00,79.4,68.0,30.01,East,85,3.0,4.0,68,0.00,,,0.00,weatherlink.com 1.10,2013-09-07 21:46:00,
2013-09-07 18:01:00,79.1,69.0,30.00,ESE,113,0.0,2.0,70,0.00,,,0.00,weatherlink.com 1.10,2013-09-07 22:01:00,
2013-09-07 18:16:00,78.6,68.0,30.00,WSW,238,2.0,2.0,70,0.00,,,0.00,weatherlink.com 1.10,2013-09-07 22:16:00,
2013-09-07 18:31:00,78.1,68.0,30.00,ENE,72,1.0,2.0,72,0.00,,,0.00,weatherlink.com 1.10,2013-09-07 22:31:00,
2013-09-07 18:46:00,77.7,69.0,30.00,ESE,109,0.0,1.0,75,0.00,,,0.00,weatherlink.com 1.10,2013-09-07 22:46:00,
2013-09-07 19:01:00,76.5,69.0,30.00,ESE,112,0.0,1.0,77,0.00,,,0.00,weatherlink.com 1.10,2013-09-07 23:01:00,
2013-09-07 19:16:00,75.3,68.0,30.00,ESE,112,0.0,0.0,79,0.00,,,0.00,weatherlink.com 1.10,2013-09-07 23:16:00,
2013-09-07 19:31:00,74.0,69.0,30.00,ESE,112,0.0,0.0,83,0.00,,,0.00,weatherlink.com 1.10,2013-09-07 23:31:00,
2013-09-07 19:46:00,72.7,68.0,30.00,ESE,112,0.0,1.0,86,0.00,,,0.00,weatherlink.com 1.10,2013-09-07 23:46:00,
2013-09-07 20:01:00,71.6,68.0,30.00,ESE,112,0.0,0.0,88,0.00,,,0.00,weatherlink.com 1.10,2013-09-08 00:01:00,
2013-09-07 20:16:00,70.7,68.0,30.01,ESE,111,0.0,1.0,90,0.00,,,0.00,weatherlink.com 1.10,2013-09-08 00:16:00,
2013-09-07 20:31:00,70.0,67.0,30.01,ESE,108,0.0,1.0,91,0.00,,,0.00,weatherlink.com 1.10,2013-09-08 00:31:00,
2013-09-07 20:46:00,69.5,67.0,30.01,ESE,108,0.0,1.0,92,0.00,,,0.00,weatherlink.com 1.10,2013-09-08 00:46:00,
2013-09-07 21:01:00,69.0,67.0,30.01,ESE,109,0.0,1.0,93,0.00,,,0.00,weatherlink.com 1.10,2013-09-08 01:01:00,
2013-09-07 21:16:00,68.4,66.0,30.01,ESE,108,0.0,0.0,93,0.00,,,0.00,weatherlink.com 1.10,2013-09-08 01:16:00,
2013-09-07 21:31:00,68.1,66.0,30.02,ESE,108,0.0,0.0,94,0.00,,,0.00,weatherlink.com 1.10,2013-09-08 01:31:00,
2013-09-07 21:46:00,67.7,66.0,30.02,ESE,108,0.0,0.0,94,0.00,,,0.00,weatherlink.com 1.10,2013-09-08 01:46:00,
2013-09-07 22:01:00,67.2,66.0,30.02,ESE,108,0.0,0.0,95,0.00,,,0.00,weatherlink.com 1.10,2013-09-08 02:01:00,
2013-09-07 22:16:00,67.2,66.0,30.02,ESE,109,0.0,0.0,95,0.00,,,0.00,weatherlink.com 1.10,2013-09-08 02:16:00,
2013-09-07 22:31:00,66.8,66.0,30.03,ESE,108,0.0,0.0,96,0.00,,,0.00,weatherlink.com 1.10,2013-09-08 02:31:00,
2013-09-07 22:46:00,66.6,66.0,30.02,ESE,108,0.0,0.0,96,0.00,,,0.00,weatherlink.com 1.10,2013-09-08 02:46:00,
2013-09-07 23:01:00,66.2,65.0,30.02,ESE,108,0.0,0.0,96,0.00,,,0.00,weatherlink.com 1.10,2013-09-08 03:01:00,
2013-09-07 23:16:00,66.1,65.0,30.02,ESE,109,0.0,0.0,97,0.00,,,0.00,weatherlink.com 1.10,2013-09-08 03:16:00,
2013-09-07 23:31:00,66.1,65.0,30.02,ESE,108,0.0,0.0,97,0.00,,,0.00,weatherlink.com 1.10,2013-09-08 03:31:00,
2013-09-07 23:46:00,65.7,65.0,30.02,ESE,109,0.0,0.0,97,0.00,,,0.00,weatherlink.com 1.10,2013-09-08 03:46:00,